Blue Star Delos — SVBF7 — position and weather

sailwx.info

Track history (hours):
 
Tides and Currents Weather Stations Pressure Air Temp Water Temp Dewpoint Dewpoint Depression Visibility Wind Speed Wind Dir Waves Ship Positions

Blue Star Delos

Last reported at 2018-Jun-25 10:13 UTC. Time now 2018-Jun-25 11:18 UTC.
Position N 36°59' E 025°19'.

Length 145 m; draft 5.9 m.

Type: Ship. MMSI: 241087000.

Date/timePositionNaut miles runAvg speedWind from/ knotsBaromVisibWave heightAir tempDewpointWater temp
2018-Jun-25 10:13N 36°59' E 025°19'524.3
2018-Jun-25 10:01N 37°04' E 025°19'3 6.3
2018-Jun-25 09:31N 37°07' E 025°21'1020.0
2018-Jun-25 09:00N 37°07' E 025°09'2 3.6
2018-Jun-25 08:26N 37°05' E 025°08'921.4
2018-Jun-25 08:00N 37°11' E 024°59'1325.1
2018-Jun-25 07:31N 37°18' E 024°46'5324.4
2018-Jun-25 05:20N 37°39' E 023°45'823.9
2018-Jun-25 05:01N 37°46' E 023°40'1121.5
2018-Jun-25 04:30N 37°56' E 023°38'1 1.3
2018-Jun-25 04:00N 37°57' E 023°38'0 0.0
2018-Jun-25 03:30N 37°57' E 023°38'0 0.0
2018-Jun-25 02:59N 37°57' E 023°38'0 0.0
2018-Jun-25 02:30N 37°57' E 023°38'0 0.0
2018-Jun-25 02:00N 37°57' E 023°38'0 0.0
2018-Jun-25 01:30N 37°57' E 023°38'0 0.0
2018-Jun-25 01:00N 37°57' E 023°38'0 0.0
2018-Jun-25 00:30N 37°57' E 023°38'0 0.0
2018-Jun-25 00:00N 37°57' E 023°38'0 0.0
2018-Jun-24 23:30N 37°57' E 023°38'0 0.0
2018-Jun-24 23:00N 37°57' E 023°38'0 0.0
2018-Jun-24 22:30N 37°57' E 023°38'0 0.0
2018-Jun-24 22:00N 37°57' E 023°38'0 0.0
2018-Jun-24 21:30N 37°57' E 023°38'0 0.0
2018-Jun-24 21:00N 37°57' E 023°38'0 0.0
2018-Jun-24 20:30N 37°57' E 023°38'2 4.7
2018-Jun-24 20:00N 37°55' E 023°37'1122.5
2018-Jun-24 19:30N 37°44' E 023°43'5624.6
2018-Jun-24 17:15N 37°19' E 024°45'624.9
2018-Jun-24 17:00N 37°15' E 024°52'1224.5
2018-Jun-24 16:30N 37°08' E 025°04'4 4.0
2018-Jun-24 15:37N 37°07' E 025°08'524.9
2018-Jun-24 15:26N 37°09' E 025°13'819.1
2018-Jun-24 15:00N 37°06' E 025°22'2 3.2
2018-Jun-24 14:31N 37°06' E 025°20'7 1.7
2018-Jun-24 10:14N 36°59' E 025°19'523.5
2018-Jun-24 10:00N 37°04' E 025°19'3 6.4
2018-Jun-24 09:30N 37°06' E 025°22'1119.1
2018-Jun-24 08:56N 37°07' E 025°09'2 4.3
2018-Jun-24 08:27N 37°05' E 025°08'921.3
2018-Jun-24 08:01N 37°11' E 024°59'1325.1
2018-Jun-24 07:31N 37°18' E 024°46'5224.3
2018-Jun-24 05:22N 37°39' E 023°46'923.4
2018-Jun-24 05:00N 37°46' E 023°40'1121.9
2018-Jun-24 04:31N 37°56' E 023°38'1 1.4
2018-Jun-24 04:01N 37°57' E 023°38'0 0.0
2018-Jun-24 03:31N 37°57' E 023°38'0 0.0
2018-Jun-24 03:00N 37°57' E 023°38'0 0.0
2018-Jun-24 02:30N 37°57' E 023°38'0 0.0
2018-Jun-24 02:00N 37°57' E 023°38'0 0.0
2018-Jun-24 01:30N 37°57' E 023°38'0 0.0
2018-Jun-24 01:01N 37°57' E 023°38'0 0.0
2018-Jun-24 00:30N 37°57' E 023°38'0 0.0
2018-Jun-24 00:00N 37°57' E 023°38'0 0.0
2018-Jun-23 23:31N 37°57' E 023°38'0 0.0
2018-Jun-23 23:00N 37°57' E 023°38'0 0.0
2018-Jun-23 22:31N 37°57' E 023°38'0 0.0
2018-Jun-23 22:00N 37°57' E 023°38'0 0.0
2018-Jun-23 21:30N 37°57' E 023°38'0 0.0
2018-Jun-23 21:00N 37°57' E 023°38'0 0.0
2018-Jun-23 20:30N 37°57' E 023°38'2 4.6
2018-Jun-23 20:00N 37°55' E 023°37'1122.5
2018-Jun-23 19:31N 37°45' E 023°43'5624.5
2018-Jun-23 17:14N 37°18' E 024°46'625.1
2018-Jun-23 17:00N 37°15' E 024°51'1224.7
2018-Jun-23 16:31N 37°08' E 025°04'4 5.4
2018-Jun-23 15:42N 37°05' E 025°08'518.1
2018-Jun-23 15:23N 37°09' E 025°13'820.9
2018-Jun-23 15:00N 37°06' E 025°22'2 3.9
2018-Jun-23 14:31N 37°06' E 025°20'7 1.6
2018-Jun-23 10:14N 36°59' E 025°19'523.4
2018-Jun-23 10:00N 37°05' E 025°19'3 6.2
2018-Jun-23 09:30N 37°06' E 025°22'1119.1
2018-Jun-23 08:56N 37°07' E 025°08'2 2.9
2018-Jun-23 08:23N 37°05' E 025°08'923.6
2018-Jun-23 08:01N 37°11' E 024°59'1325.2
2018-Jun-23 07:31N 37°18' E 024°47'5224.5
2018-Jun-23 05:22N 37°39' E 023°46'923.8
2018-Jun-23 05:00N 37°46' E 023°39'1121.2
2018-Jun-23 04:31N 37°56' E 023°38'1 1.3
2018-Jun-23 04:00N 37°57' E 023°38'0 0.0
2018-Jun-23 03:30N 37°57' E 023°38'0 0.0
2018-Jun-23 03:00N 37°57' E 023°38'0 0.0
2018-Jun-23 02:30N 37°57' E 023°38'0 0.0
2018-Jun-23 02:00N 37°57' E 023°38'0 0.0
2018-Jun-23 01:30N 37°57' E 023°38'0 0.0
2018-Jun-23 01:01N 37°57' E 023°38'0 0.0
2018-Jun-23 00:31N 37°57' E 023°38'0 0.0
2018-Jun-23 00:00N 37°57' E 023°38'0 0.0
2018-Jun-22 23:31N 37°57' E 023°38'0 0.0
2018-Jun-22 23:00N 37°57' E 023°38'0 0.0
2018-Jun-22 22:30N 37°57' E 023°38'0 0.0
2018-Jun-22 22:00N 37°57' E 023°38'0 0.0
2018-Jun-22 21:30N 37°57' E 023°38'0 0.0
2018-Jun-22 21:00N 37°57' E 023°38'0 0.0
2018-Jun-22 20:30N 37°57' E 023°38'2 4.9
2018-Jun-22 20:00N 37°54' E 023°38'1223.0
2018-Jun-22 19:31N 37°44' E 023°44'2524.5
2018-Jun-22 18:28N 37°32' E 024°12'3024.5
2018-Jun-22 17:15N 37°18' E 024°46'625.0
2018-Jun-22 17:01N 37°15' E 024°52'1224.7
2018-Jun-22 16:31N 37°07' E 025°04'4 4.8
2018-Jun-22 15:41N 37°05' E 025°08'518.4
2018-Jun-22 15:23N 37°09' E 025°13'820.8
2018-Jun-22 15:00N 37°06' E 025°22'2 5.0
2018-Jun-22 14:30N 37°05' E 025°19'6 1.4
2018-Jun-22 10:20N 36°59' E 025°19'722.2
2018-Jun-22 10:00N 37°06' E 025°21'1 1.8
2018-Jun-22 09:30N 37°07' E 025°22'11 9.8
2018-Jun-22 08:25N 37°05' E 025°08'1023.9
2018-Jun-22 08:01N 37°11' E 024°59'1325.0
2018-Jun-22 07:30N 37°18' E 024°46'5324.3
2018-Jun-22 05:20N 37°39' E 023°45'824.4
2018-Jun-22 05:01N 37°46' E 023°39'1020.9
2018-Jun-22 04:30N 37°56' E 023°38'1 1.2
2018-Jun-22 04:00N 37°57' E 023°38'0 0.0
2018-Jun-22 03:30N 37°57' E 023°38'0 0.0
2018-Jun-22 03:00N 37°57' E 023°38'0 0.0
2018-Jun-22 02:30N 37°57' E 023°38'0 0.0
2018-Jun-22 02:00N 37°57' E 023°38'0 0.0
2018-Jun-22 01:30N 37°57' E 023°38'0 0.0
2018-Jun-22 01:00N 37°57' E 023°38'0 0.0
2018-Jun-22 00:30N 37°57' E 023°38'0 0.0
2018-Jun-22 00:00N 37°57' E 023°38'0 0.0
2018-Jun-21 23:30N 37°57' E 023°38'0 0.0
2018-Jun-21 23:00N 37°57' E 023°38'0 0.0
2018-Jun-21 22:30N 37°57' E 023°38'0 0.0
2018-Jun-21 22:00N 37°57' E 023°38'0 0.0
2018-Jun-21 21:30N 37°57' E 023°38'0 0.0
2018-Jun-21 21:00N 37°57' E 023°38'0 0.0
2018-Jun-21 20:30N 37°57' E 023°38'2 3.8
2018-Jun-21 20:00N 37°55' E 023°37'1122.7
2018-Jun-21 19:30N 37°45' E 023°43'1224.2
2018-Jun-21 19:00N 37°38' E 023°56'4424.9
2018-Jun-21 17:14N 37°18' E 024°46'625.2
2018-Jun-21 17:01N 37°15' E 024°51'1224.8
2018-Jun-21 16:31N 37°08' E 025°04'4 5.2
2018-Jun-21 15:41N 37°05' E 025°08'518.4
2018-Jun-21 15:23N 37°09' E 025°13'820.9
2018-Jun-21 15:01N 37°06' E 025°22'1 1.3
2018-Jun-21 14:31N 37°07' E 025°21'8 1.8
2018-Jun-21 10:15N 36°59' E 025°19'623.4
2018-Jun-21 10:00N 37°05' E 025°19'3 5.5
2018-Jun-21 09:29N 37°07' E 025°22'1020.0
2018-Jun-21 08:58N 37°07' E 025°09'2 3.3
2018-Jun-21 08:19N 37°06' E 025°07'825.4
2018-Jun-21 08:01N 37°11' E 024°59'1325.2
2018-Jun-21 07:30N 37°18' E 024°46'4924.3
2018-Jun-21 05:30N 37°38' E 023°50'1123.2
2018-Jun-21 05:01N 37°46' E 023°40'1121.4
2018-Jun-21 04:31N 37°56' E 023°38'1 1.3
2018-Jun-21 04:01N 37°57' E 023°38'0 0.0
2018-Jun-21 03:31N 37°57' E 023°38'0 0.0
2018-Jun-21 03:01N 37°57' E 023°38'0 0.0
2018-Jun-21 02:31N 37°57' E 023°38'0 0.0
2018-Jun-21 02:01N 37°57' E 023°38'0 0.0
2018-Jun-21 01:31N 37°57' E 023°38'0 0.0
2018-Jun-21 01:01N 37°57' E 023°38'0 0.0
2018-Jun-21 00:31N 37°57' E 023°38'0 0.0
2018-Jun-21 00:01N 37°57' E 023°38'0 0.0
2018-Jun-20 23:30N 37°57' E 023°38'0 0.0
2018-Jun-20 23:01N 37°57' E 023°38'0 0.0
2018-Jun-20 22:31N 37°57' E 023°38'0 0.0
2018-Jun-20 22:01N 37°57' E 023°38'0 0.0
2018-Jun-20 21:30N 37°57' E 023°38'0 0.0
2018-Jun-20 21:01N 37°57' E 023°38'0 0.0
2018-Jun-20 20:31N 37°57' E 023°38'2 3.7
2018-Jun-20 20:00N 37°55' E 023°37'1122.5
2018-Jun-20 19:30N 37°45' E 023°43'5624.7
2018-Jun-20 17:14N 37°18' E 024°46'625.1
2018-Jun-20 17:00N 37°15' E 024°51'1224.6
2018-Jun-20 16:30N 37°08' E 025°04'4 5.5
2018-Jun-20 15:42N 37°05' E 025°08'518.0
2018-Jun-20 15:24N 37°09' E 025°13'820.8
2018-Jun-20 15:01N 37°06' E 025°22'1 1.9
2018-Jun-20 14:30N 37°06' E 025°21'7 1.7
2018-Jun-20 10:15N 36°59' E 025°19'623.6
2018-Jun-20 10:00N 37°05' E 025°19'3 5.8
2018-Jun-20 09:31N 37°06' E 025°22'1119.2
2018-Jun-20 08:55N 37°07' E 025°08'2 3.1
2018-Jun-20 08:25N 37°05' E 025°08'1023.8
2018-Jun-20 08:01N 37°11' E 024°58'1325.0
2018-Jun-20 07:30N 37°19' E 024°46'5224.2
2018-Jun-20 05:23N 37°39' E 023°46'923.7
2018-Jun-20 05:00N 37°46' E 023°40'1121.4
2018-Jun-20 04:30N 37°56' E 023°38'1 1.3
2018-Jun-20 04:00N 37°57' E 023°38'0 0.0
2018-Jun-20 03:30N 37°57' E 023°38'0 0.0
2018-Jun-20 03:00N 37°57' E 023°38'0 0.0
2018-Jun-20 02:30N 37°57' E 023°38'0 0.0
2018-Jun-20 02:00N 37°57' E 023°38'0 0.0
2018-Jun-20 01:30N 37°57' E 023°38'0 0.0
2018-Jun-20 01:00N 37°57' E 023°38'0 0.0
2018-Jun-20 00:30N 37°57' E 023°38'0 0.0
2018-Jun-20 00:00N 37°57' E 023°38'0 0.0
2018-Jun-19 23:30N 37°57' E 023°38'0 0.0
2018-Jun-19 23:00N 37°57' E 023°38'0 0.0
2018-Jun-19 22:30N 37°57' E 023°38'0 0.0
2018-Jun-19 22:00N 37°57' E 023°38'0 0.0
2018-Jun-19 21:30N 37°57' E 023°38'0 0.0
2018-Jun-19 21:00N 37°57' E 023°38'0 0.0
2018-Jun-19 20:30N 37°57' E 023°38'2 4.4
2018-Jun-19 20:01N 37°55' E 023°37'1122.6
2018-Jun-19 19:31N 37°45' E 023°44'5624.6
2018-Jun-19 17:14N 37°18' E 024°46'524.9
2018-Jun-19 17:01N 37°15' E 024°51'1224.6
2018-Jun-19 16:31N 37°08' E 025°04'4 5.5
2018-Jun-19 15:42N 37°05' E 025°08'518.3
2018-Jun-19 15:24N 37°09' E 025°13'820.1
2018-Jun-19 15:00N 37°06' E 025°22'2 3.2
2018-Jun-19 14:31N 37°06' E 025°20'7 1.6
2018-Jun-19 10:16N 36°59' E 025°19'623.2
2018-Jun-19 10:01N 37°05' E 025°19'3 5.3
2018-Jun-19 09:31N 37°06' E 025°22'1119.4
2018-Jun-19 08:57N 37°07' E 025°09'2 4.0
2018-Jun-19 08:24N 37°05' E 025°08'923.1
2018-Jun-19 08:00N 37°11' E 024°59'1325.1
2018-Jun-19 07:31N 37°18' E 024°47'5224.3
2018-Jun-19 05:22N 37°39' E 023°47'823.9
2018-Jun-19 05:01N 37°45' E 023°40'1122.1
2018-Jun-19 04:30N 37°56' E 023°38'1 1.5
2018-Jun-19 04:01N 37°57' E 023°38'0 0.0
2018-Jun-19 03:30N 37°57' E 023°38'0 0.0
2018-Jun-19 03:00N 37°57' E 023°38'0 0.0
2018-Jun-19 02:30N 37°57' E 023°38'0 0.0
2018-Jun-19 02:01N 37°57' E 023°38'0 0.0
2018-Jun-19 01:31N 37°57' E 023°38'0 0.0
2018-Jun-19 01:00N 37°57' E 023°38'0 0.0
2018-Jun-19 00:30N 37°57' E 023°38'0 0.0
2018-Jun-19 00:00N 37°57' E 023°38'0 0.0
2018-Jun-18 23:30N 37°57' E 023°38'0 0.0
2018-Jun-18 23:01N 37°57' E 023°38'0 0.0
2018-Jun-18 22:30N 37°57' E 023°38'0 0.0
2018-Jun-18 22:00N 37°57' E 023°38'0 0.0
2018-Jun-18 21:30N 37°57' E 023°38'0 0.0
2018-Jun-18 21:00N 37°57' E 023°38'0 0.0
2018-Jun-18 20:31N 37°57' E 023°38'2 4.5
2018-Jun-18 20:00N 37°55' E 023°37'1122.6
2018-Jun-18 19:31N 37°45' E 023°44'5624.5
2018-Jun-18 17:13N 37°18' E 024°46'525.2
2018-Jun-18 17:01N 37°15' E 024°51'1224.6
2018-Jun-18 16:31N 37°08' E 025°04'4 5.3
2018-Jun-18 15:41N 37°05' E 025°08'518.3
2018-Jun-18 15:24N 37°09' E 025°13'820.7
2018-Jun-18 15:00N 37°06' E 025°22'1 1.2
2018-Jun-18 14:31N 37°06' E 025°21'7 1.7
2018-Jun-18 10:14N 36°59' E 025°19'523.6
2018-Jun-18 10:00N 37°05' E 025°19'3 6.3
2018-Jun-18 09:30N 37°06' E 025°22'1119.6
2018-Jun-18 08:57N 37°07' E 025°09'2 3.8
2018-Jun-18 08:23N 37°05' E 025°08'822.8
2018-Jun-18 08:00N 37°10' E 024°60'1325.3
2018-Jun-18 07:30N 37°18' E 024°47'5424.6
2018-Jun-18 05:18N 37°40' E 023°44'724.7
2018-Jun-18 05:01N 37°46' E 023°40'1121.6
2018-Jun-18 04:30N 37°56' E 023°38'1 1.4
2018-Jun-18 04:00N 37°57' E 023°38'0 0.0
2018-Jun-18 03:30N 37°57' E 023°38'0 0.0
2018-Jun-18 03:00N 37°57' E 023°38'0 0.0
2018-Jun-18 02:30N 37°57' E 023°38'0 0.0
2018-Jun-18 02:00N 37°57' E 023°38'0 0.0
2018-Jun-18 01:30N 37°57' E 023°38'0 0.0
2018-Jun-18 01:00N 37°57' E 023°38'0 0.0
2018-Jun-18 00:30N 37°57' E 023°38'0 0.0
2018-Jun-18 00:00N 37°57' E 023°38'0 0.0
2018-Jun-17 23:30N 37°57' E 023°38'0 0.0
2018-Jun-17 23:00N 37°57' E 023°38'0 0.0
2018-Jun-17 22:30N 37°57' E 023°38'0 0.0
2018-Jun-17 22:00N 37°57' E 023°38'0 0.0
2018-Jun-17 21:30N 37°57' E 023°38'0 0.0
2018-Jun-17 21:00N 37°57' E 023°38'0 0.0
2018-Jun-17 20:30N 37°57' E 023°38'2 4.5
2018-Jun-17 20:01N 37°55' E 023°37'1122.8
2018-Jun-17 19:31N 37°45' E 023°44'5624.5
2018-Jun-17 17:14N 37°18' E 024°46'625.0
2018-Jun-17 17:01N 37°15' E 024°51'1224.5
2018-Jun-17 16:31N 37°08' E 025°04'4 5.4
2018-Jun-17 15:42N 37°05' E 025°08'517.6
2018-Jun-17 15:26N 37°09' E 025°12'920.3
2018-Jun-17 15:00N 37°06' E 025°22'1 1.2
2018-Jun-17 14:31N 37°07' E 025°21'8 1.8
2018-Jun-17 10:14N 36°59' E 025°19'523.6
2018-Jun-17 10:01N 37°05' E 025°19'3 6.3
2018-Jun-17 09:31N 37°06' E 025°22'1119.2
2018-Jun-17 08:55N 37°07' E 025°08'1 2.4
2018-Jun-17 08:22N 37°05' E 025°08'923.4
2018-Jun-17 08:00N 37°10' E 024°60'1325.3
2018-Jun-17 07:31N 37°18' E 024°47'5324.6
2018-Jun-17 05:20N 37°39' E 023°45'824.1
2018-Jun-17 05:01N 37°46' E 023°40'1121.4
2018-Jun-17 04:30N 37°56' E 023°38'1 1.3
2018-Jun-17 04:00N 37°57' E 023°38'0 0.0
2018-Jun-17 03:30N 37°57' E 023°38'0 0.0
2018-Jun-17 03:00N 37°57' E 023°38'0 0.0
2018-Jun-17 02:30N 37°57' E 023°38'0 0.0
2018-Jun-17 02:00N 37°57' E 023°38'0 0.0
2018-Jun-17 01:30N 37°57' E 023°38'0 0.0
2018-Jun-17 01:00N 37°57' E 023°38'0 0.0
2018-Jun-17 00:30N 37°57' E 023°38'0 0.0
2018-Jun-17 00:00N 37°57' E 023°38'0 0.0
2018-Jun-16 23:30N 37°57' E 023°38'0 0.0
2018-Jun-16 23:00N 37°57' E 023°38'0 0.0
2018-Jun-16 22:30N 37°57' E 023°38'0 0.0
2018-Jun-16 22:00N 37°57' E 023°38'0 0.0
2018-Jun-16 21:30N 37°57' E 023°38'0 0.0
2018-Jun-16 21:00N 37°57' E 023°38'0 0.0
2018-Jun-16 20:30N 37°57' E 023°38'4 7.1
2018-Jun-16 20:01N 37°53' E 023°38'1223.0
2018-Jun-16 19:30N 37°43' E 023°44'5524.2
2018-Jun-16 17:15N 37°18' E 024°46'625.0
2018-Jun-16 17:01N 37°14' E 024°52'1224.5
2018-Jun-16 16:31N 37°07' E 025°04'4 4.5
2018-Jun-16 15:42N 37°05' E 025°08'517.7
2018-Jun-16 15:25N 37°09' E 025°12'820.5
2018-Jun-16 15:00N 37°06' E 025°22'3 5.5
2018-Jun-16 14:30N 37°05' E 025°19'6 1.4
2018-Jun-16 10:25N 36°59' E 025°19'818.1
2018-Jun-16 10:00N 37°06' E 025°22'1 2.6
2018-Jun-16 09:30N 37°07' E 025°21'10 9.3
2018-Jun-16 08:25N 37°05' E 025°08'923.0
2018-Jun-16 08:01N 37°11' E 024°59'1325.0
2018-Jun-16 07:30N 37°18' E 024°46'5224.3
2018-Jun-16 05:22N 37°39' E 023°46'823.8
2018-Jun-16 05:01N 37°46' E 023°40'1121.4
2018-Jun-16 04:31N 37°56' E 023°38'1 1.4
2018-Jun-16 04:01N 37°57' E 023°38'0 0.0
2018-Jun-16 03:30N 37°57' E 023°38'0 0.0
2018-Jun-16 03:01N 37°57' E 023°38'0 0.0
2018-Jun-16 02:31N 37°57' E 023°38'0 0.0
2018-Jun-16 02:01N 37°57' E 023°38'0 0.0
2018-Jun-16 01:31N 37°57' E 023°38'0 0.0
2018-Jun-16 01:00N 37°57' E 023°38'0 0.0
2018-Jun-16 00:31N 37°57' E 023°38'0 0.0
2018-Jun-16 00:01N 37°57' E 023°38'0 0.0
2018-Jun-15 23:31N 37°57' E 023°38'0 0.0
2018-Jun-15 23:01N 37°57' E 023°38'0 0.0
2018-Jun-15 22:31N 37°57' E 023°38'0 0.0
2018-Jun-15 22:01N 37°57' E 023°38'0 0.0
2018-Jun-15 21:31N 37°57' E 023°38'0 0.0
2018-Jun-15 21:01N 37°57' E 023°38'0 0.0
2018-Jun-15 20:31N 37°57' E 023°38'3 5.6
2018-Jun-15 20:01N 37°54' E 023°38'1223.3
2018-Jun-15 19:31N 37°44' E 023°44'5424.2
2018-Jun-15 17:16N 37°19' E 024°45'624.9
2018-Jun-15 17:01N 37°15' E 024°52'1224.4
2018-Jun-15 16:30N 37°08' E 025°04'4 5.6
2018-Jun-15 15:43N 37°05' E 025°08'517.0
2018-Jun-15 15:24N 37°09' E 025°13'820.8
2018-Jun-15 15:01N 37°06' E 025°22'2 3.3
2018-Jun-15 14:31N 37°06' E 025°20'7 1.7
2018-Jun-15 10:23N 36°59' E 025°19'  
Track history (hours):
 
Tides and Currents Weather Stations Pressure Air Temp Water Temp Dewpoint Dewpoint Depression Visibility Wind Speed Wind Dir Waves Ship Positions

Blue Star Delos

Last reported at 2018-Jun-25 10:13 UTC. Time now 2018-Jun-25 11:18 UTC.
Position N 36°59' E 025°19'.

Length 145 m; draft 5.9 m.

Type: Ship. MMSI: 241087000.

Date/timePositionNaut miles runAvg speedWind from/ knotsBaromVisibWave heightAir tempDewpointWater temp
2018-Jun-25 10:13N 36°59' E 025°19'524.3
2018-Jun-25 10:01N 37°04' E 025°19'3 6.3
2018-Jun-25 09:31N 37°07' E 025°21'1020.0
2018-Jun-25 09:00N 37°07' E 025°09'2 3.6
2018-Jun-25 08:26N 37°05' E 025°08'921.4
2018-Jun-25 08:00N 37°11' E 024°59'1325.1
2018-Jun-25 07:31N 37°18' E 024°46'5324.4
2018-Jun-25 05:20N 37°39' E 023°45'823.9
2018-Jun-25 05:01N 37°46' E 023°40'1121.5
2018-Jun-25 04:30N 37°56' E 023°38'1 1.3
2018-Jun-25 04:00N 37°57' E 023°38'0 0.0
2018-Jun-25 03:30N 37°57' E 023°38'0 0.0
2018-Jun-25 02:59N 37°57' E 023°38'0 0.0
2018-Jun-25 02:30N 37°57' E 023°38'0 0.0
2018-Jun-25 02:00N 37°57' E 023°38'0 0.0
2018-Jun-25 01:30N 37°57' E 023°38'0 0.0
2018-Jun-25 01:00N 37°57' E 023°38'0 0.0
2018-Jun-25 00:30N 37°57' E 023°38'0 0.0
2018-Jun-25 00:00N 37°57' E 023°38'0 0.0
2018-Jun-24 23:30N 37°57' E 023°38'0 0.0
2018-Jun-24 23:00N 37°57' E 023°38'0 0.0
2018-Jun-24 22:30N 37°57' E 023°38'0 0.0
2018-Jun-24 22:00N 37°57' E 023°38'0 0.0
2018-Jun-24 21:30N 37°57' E 023°38'0 0.0
2018-Jun-24 21:00N 37°57' E 023°38'0 0.0
2018-Jun-24 20:30N 37°57' E 023°38'2 4.7
2018-Jun-24 20:00N 37°55' E 023°37'1122.5
2018-Jun-24 19:30N 37°44' E 023°43'5624.6
2018-Jun-24 17:15N 37°19' E 024°45'624.9
2018-Jun-24 17:00N 37°15' E 024°52'1224.5
2018-Jun-24 16:30N 37°08' E 025°04'4 4.0
2018-Jun-24 15:37N 37°07' E 025°08'524.9
2018-Jun-24 15:26N 37°09' E 025°13'819.1
2018-Jun-24 15:00N 37°06' E 025°22'2 3.2
2018-Jun-24 14:31N 37°06' E 025°20'7 1.7
2018-Jun-24 10:14N 36°59' E 025°19'523.5
2018-Jun-24 10:00N 37°04' E 025°19'3 6.4
2018-Jun-24 09:30N 37°06' E 025°22'1119.1
2018-Jun-24 08:56N 37°07' E 025°09'2 4.3
2018-Jun-24 08:27N 37°05' E 025°08'921.3
2018-Jun-24 08:01N 37°11' E 024°59'1325.1
2018-Jun-24 07:31N 37°18' E 024°46'5224.3
2018-Jun-24 05:22N 37°39' E 023°46'923.4
2018-Jun-24 05:00N 37°46' E 023°40'1121.9
2018-Jun-24 04:31N 37°56' E 023°38'1 1.4
2018-Jun-24 04:01N 37°57' E 023°38'0 0.0
2018-Jun-24 03:31N 37°57' E 023°38'0 0.0
2018-Jun-24 03:00N 37°57' E 023°38'0 0.0
2018-Jun-24 02:30N 37°57' E 023°38'0 0.0
2018-Jun-24 02:00N 37°57' E 023°38'0 0.0
2018-Jun-24 01:30N 37°57' E 023°38'0 0.0
2018-Jun-24 01:01N 37°57' E 023°38'0 0.0
2018-Jun-24 00:30N 37°57' E 023°38'0 0.0
2018-Jun-24 00:00N 37°57' E 023°38'0 0.0
2018-Jun-23 23:31N 37°57' E 023°38'0 0.0
2018-Jun-23 23:00N 37°57' E 023°38'0 0.0
2018-Jun-23 22:31N 37°57' E 023°38'0 0.0
2018-Jun-23 22:00N 37°57' E 023°38'0 0.0
2018-Jun-23 21:30N 37°57' E 023°38'0 0.0
2018-Jun-23 21:00N 37°57' E 023°38'0 0.0
2018-Jun-23 20:30N 37°57' E 023°38'2 4.6
2018-Jun-23 20:00N 37°55' E 023°37'1122.5
2018-Jun-23 19:31N 37°45' E 023°43'5624.5
2018-Jun-23 17:14N 37°18' E 024°46'625.1
2018-Jun-23 17:00N 37°15' E 024°51'1224.7
2018-Jun-23 16:31N 37°08' E 025°04'4 5.4
2018-Jun-23 15:42N 37°05' E 025°08'518.1
2018-Jun-23 15:23N 37°09' E 025°13'820.9
2018-Jun-23 15:00N 37°06' E 025°22'2 3.9
2018-Jun-23 14:31N 37°06' E 025°20'7 1.6
2018-Jun-23 10:14N 36°59' E 025°19'523.4
2018-Jun-23 10:00N 37°05' E 025°19'3 6.2
2018-Jun-23 09:30N 37°06' E 025°22'1119.1
2018-Jun-23 08:56N 37°07' E 025°08'2 2.9
2018-Jun-23 08:23N 37°05' E 025°08'923.6
2018-Jun-23 08:01N 37°11' E 024°59'1325.2
2018-Jun-23 07:31N 37°18' E 024°47'5224.5
2018-Jun-23 05:22N 37°39' E 023°46'923.8
2018-Jun-23 05:00N 37°46' E 023°39'1121.2
2018-Jun-23 04:31N 37°56' E 023°38'1 1.3
2018-Jun-23 04:00N 37°57' E 023°38'0 0.0
2018-Jun-23 03:30N 37°57' E 023°38'0 0.0
2018-Jun-23 03:00N 37°57' E 023°38'0 0.0
2018-Jun-23 02:30N 37°57' E 023°38'0 0.0
2018-Jun-23 02:00N 37°57' E 023°38'0 0.0
2018-Jun-23 01:30N 37°57' E 023°38'0 0.0
2018-Jun-23 01:01N 37°57' E 023°38'0 0.0
2018-Jun-23 00:31N 37°57' E 023°38'0 0.0
2018-Jun-23 00:00N 37°57' E 023°38'0 0.0
2018-Jun-22 23:31N 37°57' E 023°38'0 0.0
2018-Jun-22 23:00N 37°57' E 023°38'0 0.0
2018-Jun-22 22:30N 37°57' E 023°38'0 0.0
2018-Jun-22 22:00N 37°57' E 023°38'0 0.0
2018-Jun-22 21:30N 37°57' E 023°38'0 0.0
2018-Jun-22 21:00N 37°57' E 023°38'0 0.0
2018-Jun-22 20:30N 37°57' E 023°38'2 4.9
2018-Jun-22 20:00N 37°54' E 023°38'1223.0
2018-Jun-22 19:31N 37°44' E 023°44'2524.5
2018-Jun-22 18:28N 37°32' E 024°12'3024.5
2018-Jun-22 17:15N 37°18' E 024°46'625.0
2018-Jun-22 17:01N 37°15' E 024°52'1224.7
2018-Jun-22 16:31N 37°07' E 025°04'4 4.8
2018-Jun-22 15:41N 37°05' E 025°08'518.4
2018-Jun-22 15:23N 37°09' E 025°13'820.8
2018-Jun-22 15:00N 37°06' E 025°22'2 5.0
2018-Jun-22 14:30N 37°05' E 025°19'6 1.4
2018-Jun-22 10:20N 36°59' E 025°19'722.2
2018-Jun-22 10:00N 37°06' E 025°21'1 1.8
2018-Jun-22 09:30N 37°07' E 025°22'11 9.8
2018-Jun-22 08:25N 37°05' E 025°08'1023.9
2018-Jun-22 08:01N 37°11' E 024°59'1325.0
2018-Jun-22 07:30N 37°18' E 024°46'5324.3
2018-Jun-22 05:20N 37°39' E 023°45'824.4
2018-Jun-22 05:01N 37°46' E 023°39'1020.9
2018-Jun-22 04:30N 37°56' E 023°38'1 1.2
2018-Jun-22 04:00N 37°57' E 023°38'0 0.0
2018-Jun-22 03:30N 37°57' E 023°38'0 0.0
2018-Jun-22 03:00N 37°57' E 023°38'0 0.0
2018-Jun-22 02:30N 37°57' E 023°38'0 0.0
2018-Jun-22 02:00N 37°57' E 023°38'0 0.0
2018-Jun-22 01:30N 37°57' E 023°38'0 0.0
2018-Jun-22 01:00N 37°57' E 023°38'0 0.0
2018-Jun-22 00:30N 37°57' E 023°38'0 0.0
2018-Jun-22 00:00N 37°57' E 023°38'0 0.0
2018-Jun-21 23:30N 37°57' E 023°38'0 0.0
2018-Jun-21 23:00N 37°57' E 023°38'0 0.0
2018-Jun-21 22:30N 37°57' E 023°38'0 0.0
2018-Jun-21 22:00N 37°57' E 023°38'0 0.0
2018-Jun-21 21:30N 37°57' E 023°38'0 0.0
2018-Jun-21 21:00N 37°57' E 023°38'0 0.0
2018-Jun-21 20:30N 37°57' E 023°38'2 3.8
2018-Jun-21 20:00N 37°55' E 023°37'1122.7
2018-Jun-21 19:30N 37°45' E 023°43'1224.2
2018-Jun-21 19:00N 37°38' E 023°56'4424.9
2018-Jun-21 17:14N 37°18' E 024°46'625.2
2018-Jun-21 17:01N 37°15' E 024°51'1224.8
2018-Jun-21 16:31N 37°08' E 025°04'4 5.2
2018-Jun-21 15:41N 37°05' E 025°08'518.4
2018-Jun-21 15:23N 37°09' E 025°13'820.9
2018-Jun-21 15:01N 37°06' E 025°22'1 1.3
2018-Jun-21 14:31N 37°07' E 025°21'8 1.8
2018-Jun-21 10:15N 36°59' E 025°19'623.4
2018-Jun-21 10:00N 37°05' E 025°19'3 5.5
2018-Jun-21 09:29N 37°07' E 025°22'1020.0
2018-Jun-21 08:58N 37°07' E 025°09'2 3.3
2018-Jun-21 08:19N 37°06' E 025°07'825.4
2018-Jun-21 08:01N 37°11' E 024°59'1325.2
2018-Jun-21 07:30N 37°18' E 024°46'4924.3
2018-Jun-21 05:30N 37°38' E 023°50'1123.2
2018-Jun-21 05:01N 37°46' E 023°40'1121.4
2018-Jun-21 04:31N 37°56' E 023°38'1 1.3
2018-Jun-21 04:01N 37°57' E 023°38'0 0.0
2018-Jun-21 03:31N 37°57' E 023°38'0 0.0
2018-Jun-21 03:01N 37°57' E 023°38'0 0.0
2018-Jun-21 02:31N 37°57' E 023°38'0 0.0
2018-Jun-21 02:01N 37°57' E 023°38'0 0.0
2018-Jun-21 01:31N 37°57' E 023°38'0 0.0
2018-Jun-21 01:01N 37°57' E 023°38'0 0.0
2018-Jun-21 00:31N 37°57' E 023°38'0 0.0
2018-Jun-21 00:01N 37°57' E 023°38'0 0.0
2018-Jun-20 23:30N 37°57' E 023°38'0 0.0
2018-Jun-20 23:01N 37°57' E 023°38'0 0.0
2018-Jun-20 22:31N 37°57' E 023°38'0 0.0
2018-Jun-20 22:01N 37°57' E 023°38'0 0.0
2018-Jun-20 21:30N 37°57' E 023°38'0 0.0
2018-Jun-20 21:01N 37°57' E 023°38'0 0.0
2018-Jun-20 20:31N 37°57' E 023°38'2 3.7
2018-Jun-20 20:00N 37°55' E 023°37'1122.5
2018-Jun-20 19:30N 37°45' E 023°43'5624.7
2018-Jun-20 17:14N 37°18' E 024°46'625.1
2018-Jun-20 17:00N 37°15' E 024°51'1224.6
2018-Jun-20 16:30N 37°08' E 025°04'4 5.5
2018-Jun-20 15:42N 37°05' E 025°08'518.0
2018-Jun-20 15:24N 37°09' E 025°13'820.8
2018-Jun-20 15:01N 37°06' E 025°22'1 1.9
2018-Jun-20 14:30N 37°06' E 025°21'7 1.7
2018-Jun-20 10:15N 36°59' E 025°19'623.6
2018-Jun-20 10:00N 37°05' E 025°19'3 5.8
2018-Jun-20 09:31N 37°06' E 025°22'1119.2
2018-Jun-20 08:55N 37°07' E 025°08'2 3.1
2018-Jun-20 08:25N 37°05' E 025°08'1023.8
2018-Jun-20 08:01N 37°11' E 024°58'1325.0
2018-Jun-20 07:30N 37°19' E 024°46'5224.2
2018-Jun-20 05:23N 37°39' E 023°46'923.7
2018-Jun-20 05:00N 37°46' E 023°40'1121.4
2018-Jun-20 04:30N 37°56' E 023°38'1 1.3
2018-Jun-20 04:00N 37°57' E 023°38'0 0.0
2018-Jun-20 03:30N 37°57' E 023°38'0 0.0
2018-Jun-20 03:00N 37°57' E 023°38'0 0.0
2018-Jun-20 02:30N 37°57' E 023°38'0 0.0
2018-Jun-20 02:00N 37°57' E 023°38'0 0.0
2018-Jun-20 01:30N 37°57' E 023°38'0 0.0
2018-Jun-20 01:00N 37°57' E 023°38'0 0.0
2018-Jun-20 00:30N 37°57' E 023°38'0 0.0
2018-Jun-20 00:00N 37°57' E 023°38'0 0.0
2018-Jun-19 23:30N 37°57' E 023°38'0 0.0
2018-Jun-19 23:00N 37°57' E 023°38'0 0.0
2018-Jun-19 22:30N 37°57' E 023°38'0 0.0
2018-Jun-19 22:00N 37°57' E 023°38'0 0.0
2018-Jun-19 21:30N 37°57' E 023°38'0 0.0
2018-Jun-19 21:00N 37°57' E 023°38'0 0.0
2018-Jun-19 20:30N 37°57' E 023°38'2 4.4
2018-Jun-19 20:01N 37°55' E 023°37'1122.6
2018-Jun-19 19:31N 37°45' E 023°44'5624.6
2018-Jun-19 17:14N 37°18' E 024°46'524.9
2018-Jun-19 17:01N 37°15' E 024°51'1224.6
2018-Jun-19 16:31N 37°08' E 025°04'4 5.5
2018-Jun-19 15:42N 37°05' E 025°08'518.3
2018-Jun-19 15:24N 37°09' E 025°13'820.1
2018-Jun-19 15:00N 37°06' E 025°22'2 3.2
2018-Jun-19 14:31N 37°06' E 025°20'7 1.6
2018-Jun-19 10:16N 36°59' E 025°19'623.2
2018-Jun-19 10:01N 37°05' E 025°19'3 5.3
2018-Jun-19 09:31N 37°06' E 025°22'1119.4
2018-Jun-19 08:57N 37°07' E 025°09'2 4.0
2018-Jun-19 08:24N 37°05' E 025°08'923.1
2018-Jun-19 08:00N 37°11' E 024°59'1325.1
2018-Jun-19 07:31N 37°18' E 024°47'5224.3
2018-Jun-19 05:22N 37°39' E 023°47'823.9
2018-Jun-19 05:01N 37°45' E 023°40'1122.1
2018-Jun-19 04:30N 37°56' E 023°38'1 1.5
2018-Jun-19 04:01N 37°57' E 023°38'0 0.0
2018-Jun-19 03:30N 37°57' E 023°38'0 0.0
2018-Jun-19 03:00N 37°57' E 023°38'0 0.0
2018-Jun-19 02:30N 37°57' E 023°38'0 0.0
2018-Jun-19 02:01N 37°57' E 023°38'0 0.0
2018-Jun-19 01:31N 37°57' E 023°38'0 0.0
2018-Jun-19 01:00N 37°57' E 023°38'0 0.0
2018-Jun-19 00:30N 37°57' E 023°38'0 0.0
2018-Jun-19 00:00N 37°57' E 023°38'0 0.0
2018-Jun-18 23:30N 37°57' E 023°38'0 0.0
2018-Jun-18 23:01N 37°57' E 023°38'0 0.0
2018-Jun-18 22:30N 37°57' E 023°38'0 0.0
2018-Jun-18 22:00N 37°57' E 023°38'0 0.0
2018-Jun-18 21:30N 37°57' E 023°38'0 0.0
2018-Jun-18 21:00N 37°57' E 023°38'0 0.0
2018-Jun-18 20:31N 37°57' E 023°38'2 4.5
2018-Jun-18 20:00N 37°55' E 023°37'1122.6
2018-Jun-18 19:31N 37°45' E 023°44'5624.5
2018-Jun-18 17:13N 37°18' E 024°46'525.2
2018-Jun-18 17:01N 37°15' E 024°51'1224.6
2018-Jun-18 16:31N 37°08' E 025°04'4 5.3
2018-Jun-18 15:41N 37°05' E 025°08'518.3
2018-Jun-18 15:24N 37°09' E 025°13'820.7
2018-Jun-18 15:00N 37°06' E 025°22'1 1.2
2018-Jun-18 14:31N 37°06' E 025°21'7 1.7
2018-Jun-18 10:14N 36°59' E 025°19'523.6
2018-Jun-18 10:00N 37°05' E 025°19'3 6.3
2018-Jun-18 09:30N 37°06' E 025°22'1119.6
2018-Jun-18 08:57N 37°07' E 025°09'2 3.8
2018-Jun-18 08:23N 37°05' E 025°08'822.8
2018-Jun-18 08:00N 37°10' E 024°60'1325.3
2018-Jun-18 07:30N 37°18' E 024°47'5424.6
2018-Jun-18 05:18N 37°40' E 023°44'724.7
2018-Jun-18 05:01N 37°46' E 023°40'1121.6
2018-Jun-18 04:30N 37°56' E 023°38'1 1.4
2018-Jun-18 04:00N 37°57' E 023°38'0 0.0
2018-Jun-18 03:30N 37°57' E 023°38'0 0.0
2018-Jun-18 03:00N 37°57' E 023°38'0 0.0
2018-Jun-18 02:30N 37°57' E 023°38'0 0.0
2018-Jun-18 02:00N 37°57' E 023°38'0 0.0
2018-Jun-18 01:30N 37°57' E 023°38'0 0.0
2018-Jun-18 01:00N 37°57' E 023°38'0 0.0
2018-Jun-18 00:30N 37°57' E 023°38'0 0.0
2018-Jun-18 00:00N 37°57' E 023°38'0 0.0
2018-Jun-17 23:30N 37°57' E 023°38'0 0.0
2018-Jun-17 23:00N 37°57' E 023°38'0 0.0
2018-Jun-17 22:30N 37°57' E 023°38'0 0.0
2018-Jun-17 22:00N 37°57' E 023°38'0 0.0
2018-Jun-17 21:30N 37°57' E 023°38'0 0.0
2018-Jun-17 21:00N 37°57' E 023°38'0 0.0
2018-Jun-17 20:30N 37°57' E 023°38'2 4.5
2018-Jun-17 20:01N 37°55' E 023°37'1122.8
2018-Jun-17 19:31N 37°45' E 023°44'5624.5
2018-Jun-17 17:14N 37°18' E 024°46'625.0
2018-Jun-17 17:01N 37°15' E 024°51'1224.5
2018-Jun-17 16:31N 37°08' E 025°04'4 5.4
2018-Jun-17 15:42N 37°05' E 025°08'517.6
2018-Jun-17 15:26N 37°09' E 025°12'920.3
2018-Jun-17 15:00N 37°06' E 025°22'1 1.2
2018-Jun-17 14:31N 37°07' E 025°21'8 1.8
2018-Jun-17 10:14N 36°59' E 025°19'523.6
2018-Jun-17 10:01N 37°05' E 025°19'3 6.3
2018-Jun-17 09:31N 37°06' E 025°22'1119.2
2018-Jun-17 08:55N 37°07' E 025°08'1 2.4
2018-Jun-17 08:22N 37°05' E 025°08'923.4
2018-Jun-17 08:00N 37°10' E 024°60'1325.3
2018-Jun-17 07:31N 37°18' E 024°47'5324.6
2018-Jun-17 05:20N 37°39' E 023°45'824.1
2018-Jun-17 05:01N 37°46' E 023°40'1121.4
2018-Jun-17 04:30N 37°56' E 023°38'1 1.3
2018-Jun-17 04:00N 37°57' E 023°38'0 0.0
2018-Jun-17 03:30N 37°57' E 023°38'0 0.0
2018-Jun-17 03:00N 37°57' E 023°38'0 0.0
2018-Jun-17 02:30N 37°57' E 023°38'0 0.0
2018-Jun-17 02:00N 37°57' E 023°38'0 0.0
2018-Jun-17 01:30N 37°57' E 023°38'0 0.0
2018-Jun-17 01:00N 37°57' E 023°38'0 0.0
2018-Jun-17 00:30N 37°57' E 023°38'0 0.0
2018-Jun-17 00:00N 37°57' E 023°38'0 0.0
2018-Jun-16 23:30N 37°57' E 023°38'0 0.0
2018-Jun-16 23:00N 37°57' E 023°38'0 0.0
2018-Jun-16 22:30N 37°57' E 023°38'0 0.0
2018-Jun-16 22:00N 37°57' E 023°38'0 0.0
2018-Jun-16 21:30N 37°57' E 023°38'0 0.0
2018-Jun-16 21:00N 37°57' E 023°38'0 0.0
2018-Jun-16 20:30N 37°57' E 023°38'4 7.1
2018-Jun-16 20:01N 37°53' E 023°38'1223.0
2018-Jun-16 19:30N 37°43' E 023°44'5524.2
2018-Jun-16 17:15N 37°18' E 024°46'625.0
2018-Jun-16 17:01N 37°14' E 024°52'1224.5
2018-Jun-16 16:31N 37°07' E 025°04'4 4.5
2018-Jun-16 15:42N 37°05' E 025°08'517.7
2018-Jun-16 15:25N 37°09' E 025°12'820.5
2018-Jun-16 15:00N 37°06' E 025°22'3 5.5
2018-Jun-16 14:30N 37°05' E 025°19'6 1.4
2018-Jun-16 10:25N 36°59' E 025°19'818.1
2018-Jun-16 10:00N 37°06' E 025°22'1 2.6
2018-Jun-16 09:30N 37°07' E 025°21'10 9.3
2018-Jun-16 08:25N 37°05' E 025°08'923.0
2018-Jun-16 08:01N 37°11' E 024°59'1325.0
2018-Jun-16 07:30N 37°18' E 024°46'5224.3
2018-Jun-16 05:22N 37°39' E 023°46'823.8
2018-Jun-16 05:01N 37°46' E 023°40'1121.4
2018-Jun-16 04:31N 37°56' E 023°38'1 1.4
2018-Jun-16 04:01N 37°57' E 023°38'0 0.0
2018-Jun-16 03:30N 37°57' E 023°38'0 0.0
2018-Jun-16 03:01N 37°57' E 023°38'0 0.0
2018-Jun-16 02:31N 37°57' E 023°38'0 0.0
2018-Jun-16 02:01N 37°57' E 023°38'0 0.0
2018-Jun-16 01:31N 37°57' E 023°38'0 0.0
2018-Jun-16 01:00N 37°57' E 023°38'0 0.0
2018-Jun-16 00:31N 37°57' E 023°38'0 0.0
2018-Jun-16 00:01N 37°57' E 023°38'0 0.0
2018-Jun-15 23:31N 37°57' E 023°38'0 0.0
2018-Jun-15 23:01N 37°57' E 023°38'0 0.0
2018-Jun-15 22:31N 37°57' E 023°38'0 0.0
2018-Jun-15 22:01N 37°57' E 023°38'0 0.0
2018-Jun-15 21:31N 37°57' E 023°38'0 0.0
2018-Jun-15 21:01N 37°57' E 023°38'0 0.0
2018-Jun-15 20:31N 37°57' E 023°38'3 5.6
2018-Jun-15 20:01N 37°54' E 023°38'1223.3
2018-Jun-15 19:31N 37°44' E 023°44'5424.2
2018-Jun-15 17:16N 37°19' E 024°45'624.9
2018-Jun-15 17:01N 37°15' E 024°52'1224.4
2018-Jun-15 16:30N 37°08' E 025°04'4 5.6
2018-Jun-15 15:43N 37°05' E 025°08'517.0
2018-Jun-15 15:24N 37°09' E 025°13'820.8
2018-Jun-15 15:01N 37°06' E 025°22'2 3.3
2018-Jun-15 14:31N 37°06' E 025°20'7 1.7
2018-Jun-15 10:23N 36°59' E 025°19'  

Dump ship's entire track history